sensor_id;sensor_type;location;lat;lon;timestamp;P1;durP1;ratioP1;P2;durP2;ratioP2
71366;SDS011;60030;52.274;8.040;2023-05-10T00:01:00;5.97;;;5.30;;
71366;SDS011;60030;52.274;8.040;2023-05-10T00:03:28;7.10;;;6.07;;
71366;SDS011;60030;52.274;8.040;2023-05-10T00:05:57;5.67;;;4.87;;
71366;SDS011;60030;52.274;8.040;2023-05-10T00:08:25;6.23;;;5.37;;
71366;SDS011;60030;52.274;8.040;2023-05-10T00:10:52;7.83;;;5.60;;
71366;SDS011;60030;52.274;8.040;2023-05-10T00:13:20;6.83;;;6.13;;
71366;SDS011;60030;52.274;8.040;2023-05-10T00:15:47;7.37;;;5.47;;
71366;SDS011;60030;52.274;8.040;2023-05-10T00:18:15;7.17;;;5.77;;
71366;SDS011;60030;52.274;8.040;2023-05-10T00:20:43;6.13;;;5.27;;
71366;SDS011;60030;52.274;8.040;2023-05-10T00:23:13;7.57;;;5.73;;
71366;SDS011;60030;52.274;8.040;2023-05-10T00:25:40;6.23;;;5.60;;
71366;SDS011;60030;52.274;8.040;2023-05-10T00:28:08;6.87;;;5.43;;
71366;SDS011;60030;52.274;8.040;2023-05-10T00:30:36;6.70;;;5.77;;
71366;SDS011;60030;52.274;8.040;2023-05-10T00:33:06;5.87;;;5.20;;
71366;SDS011;60030;52.274;8.040;2023-05-10T00:35:34;7.00;;;5.50;;
71366;SDS011;60030;52.274;8.040;2023-05-10T00:38:01;8.17;;;5.77;;
71366;SDS011;60030;52.274;8.040;2023-05-10T00:40:31;6.93;;;5.50;;
71366;SDS011;60030;52.274;8.040;2023-05-10T00:43:04;7.40;;;5.07;;
71366;SDS011;60030;52.274;8.040;2023-05-10T00:45:31;6.83;;;4.87;;
71366;SDS011;60030;52.274;8.040;2023-05-10T00:48:00;7.30;;;5.83;;
71366;SDS011;60030;52.274;8.040;2023-05-10T00:50:29;5.47;;;4.80;;
71366;SDS011;60030;52.274;8.040;2023-05-10T00:52:57;7.03;;;5.17;;
71366;SDS011;60030;52.274;8.040;2023-05-10T00:55:25;8.37;;;5.10;;
71366;SDS011;60030;52.274;8.040;2023-05-10T00:57:54;6.03;;;5.10;;
71366;SDS011;60030;52.274;8.040;2023-05-10T01:00:22;4.90;;;4.40;;
71366;SDS011;60030;52.274;8.040;2023-05-10T01:02:49;5.83;;;4.83;;
71366;SDS011;60030;52.274;8.040;2023-05-10T01:05:16;7.07;;;4.67;;
71366;SDS011;60030;52.274;8.040;2023-05-10T01:07:44;6.23;;;4.70;;
71366;SDS011;60030;52.274;8.040;2023-05-10T01:10:11;6.33;;;5.30;;
71366;SDS011;60030;52.274;8.040;2023-05-10T01:12:40;7.23;;;4.77;;
71366;SDS011;60030;52.274;8.040;2023-05-10T01:15:10;6.47;;;4.77;;
71366;SDS011;60030;52.274;8.040;2023-05-10T01:17:39;5.57;;;4.57;;
71366;SDS011;60030;52.274;8.040;2023-05-10T01:20:09;5.10;;;4.60;;
71366;SDS011;60030;52.274;8.040;2023-05-10T01:22:50;5.13;;;4.63;;
71366;SDS011;60030;52.274;8.040;2023-05-10T01:25:46;8.30;;;5.00;;
71366;SDS011;60030;52.274;8.040;2023-05-10T01:28:33;6.47;;;4.93;;
71366;SDS011;60030;52.274;8.040;2023-05-10T01:31:28;6.07;;;4.60;;
71366;SDS011;60030;52.274;8.040;2023-05-10T01:34:08;6.23;;;5.30;;
71366;SDS011;60030;52.274;8.040;2023-05-10T01:36:40;6.10;;;5.13;;
71366;SDS011;60030;52.274;8.040;2023-05-10T01:39:15;6.47;;;5.30;;
71366;SDS011;60030;52.274;8.040;2023-05-10T01:41:45;6.27;;;5.43;;
71366;SDS011;60030;52.274;8.040;2023-05-10T01:44:20;5.70;;;5.10;;
71366;SDS011;60030;52.274;8.040;2023-05-10T01:46:57;6.83;;;6.13;;
71366;SDS011;60030;52.274;8.040;2023-05-10T01:49:34;7.70;;;6.40;;
71366;SDS011;60030;52.274;8.040;2023-05-10T01:52:08;7.80;;;6.37;;
71366;SDS011;60030;52.274;8.040;2023-05-10T01:54:38;5.73;;;5.13;;
71366;SDS011;60030;52.274;8.040;2023-05-10T01:57:09;5.83;;;4.83;;
71366;SDS011;60030;52.274;8.040;2023-05-10T01:59:40;5.30;;;3.93;;
71366;SDS011;60030;52.274;8.040;2023-05-10T02:02:12;4.57;;;3.57;;
71366;SDS011;60030;52.274;8.040;2023-05-10T02:04:42;3.60;;;3.27;;
71366;SDS011;60030;52.274;8.040;2023-05-10T02:07:11;4.80;;;2.93;;
71366;SDS011;60030;52.274;8.040;2023-05-10T02:09:41;5.60;;;3.00;;
71366;SDS011;60030;52.274;8.040;2023-05-10T02:12:13;2.57;;;2.30;;
71366;SDS011;60030;52.274;8.040;2023-05-10T02:14:42;3.00;;;2.27;;
71366;SDS011;60030;52.274;8.040;2023-05-10T02:17:10;3.50;;;2.63;;
71366;SDS011;60030;52.274;8.040;2023-05-10T02:19:40;2.63;;;2.17;;
71366;SDS011;60030;52.274;8.040;2023-05-10T02:22:11;2.20;;;1.83;;
71366;SDS011;60030;52.274;8.040;2023-05-10T02:24:39;2.23;;;1.73;;
71366;SDS011;60030;52.274;8.040;2023-05-10T02:27:07;1.90;;;1.63;;
71366;SDS011;60030;52.274;8.040;2023-05-10T02:29:36;1.90;;;1.30;;
71366;SDS011;60030;52.274;8.040;2023-05-10T02:32:04;1.43;;;1.33;;
71366;SDS011;60030;52.274;8.040;2023-05-10T02:34:33;1.27;;;1.10;;
71366;SDS011;60030;52.274;8.040;2023-05-10T02:37:02;1.20;;;1.10;;
71366;SDS011;60030;52.274;8.040;2023-05-10T02:39:31;1.13;;;0.93;;
71366;SDS011;60030;52.274;8.040;2023-05-10T02:42:00;1.07;;;0.97;;
71366;SDS011;60030;52.274;8.040;2023-05-10T02:44:29;0.80;;;0.80;;
71366;SDS011;60030;52.274;8.040;2023-05-10T02:46:58;1.90;;;1.20;;
71366;SDS011;60030;52.274;8.040;2023-05-10T02:49:25;1.37;;;0.93;;
71366;SDS011;60030;52.274;8.040;2023-05-10T02:52:00;2.10;;;1.03;;
71366;SDS011;60030;52.274;8.040;2023-05-10T02:54:33;1.30;;;1.17;;
71366;SDS011;60030;52.274;8.040;2023-05-10T02:57:06;1.30;;;1.13;;
71366;SDS011;60030;52.274;8.040;2023-05-10T02:59:37;1.50;;;1.40;;
71366;SDS011;60030;52.274;8.040;2023-05-10T03:02:05;1.07;;;0.87;;
71366;SDS011;60030;52.274;8.040;2023-05-10T03:04:33;0.93;;;0.70;;
71366;SDS011;60030;52.274;8.040;2023-05-10T03:07:00;1.40;;;0.60;;
71366;SDS011;60030;52.274;8.040;2023-05-10T03:09:29;1.20;;;1.10;;
71366;SDS011;60030;52.274;8.040;2023-05-10T03:12:00;1.20;;;0.80;;
71366;SDS011;60030;52.274;8.040;2023-05-10T03:14:34;1.43;;;0.80;;
71366;SDS011;60030;52.274;8.040;2023-05-10T03:17:10;3.57;;;1.33;;
71366;SDS011;60030;52.274;8.040;2023-05-10T03:19:53;1.83;;;1.33;;
71366;SDS011;60030;52.274;8.040;2023-05-10T03:22:26;1.17;;;1.00;;
71366;SDS011;60030;52.274;8.040;2023-05-10T03:24:57;2.20;;;1.60;;
71366;SDS011;60030;52.274;8.040;2023-05-10T03:27:30;2.13;;;1.40;;
71366;SDS011;60030;52.274;8.040;2023-05-10T03:29:59;2.83;;;1.90;;
71366;SDS011;60030;52.274;8.040;2023-05-10T03:32:31;3.43;;;2.40;;
71366;SDS011;60030;52.274;8.040;2023-05-10T03:35:00;4.13;;;2.73;;
71366;SDS011;60030;52.274;8.040;2023-05-10T03:37:34;3.10;;;2.80;;
71366;SDS011;60030;52.274;8.040;2023-05-10T03:40:02;3.17;;;2.70;;
71366;SDS011;60030;52.274;8.040;2023-05-10T03:42:32;3.67;;;3.27;;
71366;SDS011;60030;52.274;8.040;2023-05-10T03:45:00;3.43;;;3.07;;
71366;SDS011;60030;52.274;8.040;2023-05-10T03:47:27;4.30;;;3.53;;
71366;SDS011;60030;52.274;8.040;2023-05-10T03:49:57;4.40;;;3.97;;
71366;SDS011;60030;52.274;8.040;2023-05-10T03:52:24;4.60;;;4.10;;
71366;SDS011;60030;52.274;8.040;2023-05-10T03:54:53;4.80;;;4.10;;
71366;SDS011;60030;52.274;8.040;2023-05-10T03:57:22;4.73;;;3.70;;
71366;SDS011;60030;52.274;8.040;2023-05-10T03:59:51;4.53;;;4.13;;
71366;SDS011;60030;52.274;8.040;2023-05-10T04:02:18;4.97;;;4.47;;
71366;SDS011;60030;52.274;8.040;2023-05-10T04:04:46;4.27;;;3.87;;
71366;SDS011;60030;52.274;8.040;2023-05-10T04:07:14;5.57;;;4.80;;
71366;SDS011;60030;52.274;8.040;2023-05-10T04:09:41;5.37;;;4.43;;
71366;SDS011;60030;52.274;8.040;2023-05-10T04:12:10;4.20;;;3.80;;
71366;SDS011;60030;52.274;8.040;2023-05-10T04:14:37;5.40;;;4.20;;
71366;SDS011;60030;52.274;8.040;2023-05-10T04:17:05;4.53;;;4.13;;
71366;SDS011;60030;52.274;8.040;2023-05-10T04:19:32;6.33;;;3.60;;
71366;SDS011;60030;52.274;8.040;2023-05-10T04:22:00;5.10;;;4.20;;
71366;SDS011;60030;52.274;8.040;2023-05-10T04:24:29;5.83;;;4.00;;
71366;SDS011;60030;52.274;8.040;2023-05-10T04:26:57;4.43;;;4.03;;
71366;SDS011;60030;52.274;8.040;2023-05-10T04:29:25;4.37;;;3.83;;
71366;SDS011;60030;52.274;8.040;2023-05-10T04:31:53;4.57;;;4.00;;
71366;SDS011;60030;52.274;8.040;2023-05-10T04:34:22;4.30;;;3.90;;
71366;SDS011;60030;52.274;8.040;2023-05-10T04:36:49;4.63;;;3.90;;
71366;SDS011;60030;52.274;8.040;2023-05-10T04:39:16;4.30;;;3.80;;
71366;SDS011;60030;52.274;8.040;2023-05-10T04:41:44;6.23;;;3.80;;
71366;SDS011;60030;52.274;8.040;2023-05-10T04:44:11;4.40;;;3.73;;
71366;SDS011;60030;52.274;8.040;2023-05-10T04:46:40;5.03;;;3.60;;
71366;SDS011;60030;52.274;8.040;2023-05-10T04:49:07;4.63;;;3.20;;
71366;SDS011;60030;52.274;8.040;2023-05-10T04:51:34;4.40;;;3.07;;
71366;SDS011;60030;52.274;8.040;2023-05-10T04:54:02;3.23;;;2.93;;
71366;SDS011;60030;52.274;8.040;2023-05-10T04:56:29;3.87;;;3.00;;
71366;SDS011;60030;52.274;8.040;2023-05-10T04:58:57;3.43;;;3.13;;
71366;SDS011;60030;52.274;8.040;2023-05-10T05:01:24;3.13;;;2.83;;
71366;SDS011;60030;52.274;8.040;2023-05-10T05:03:53;4.20;;;2.70;;
71366;SDS011;60030;52.274;8.040;2023-05-10T05:06:20;3.90;;;3.20;;
71366;SDS011;60030;52.274;8.040;2023-05-10T05:08:48;3.17;;;2.73;;
71366;SDS011;60030;52.274;8.040;2023-05-10T05:11:15;2.60;;;2.30;;
71366;SDS011;60030;52.274;8.040;2023-05-10T05:13:43;3.47;;;2.77;;
71366;SDS011;60030;52.274;8.040;2023-05-10T05:16:11;4.93;;;3.43;;
71366;SDS011;60030;52.274;8.040;2023-05-10T05:18:38;6.30;;;3.43;;
71366;SDS011;60030;52.274;8.040;2023-05-10T05:21:14;5.57;;;3.93;;
71366;SDS011;60030;52.274;8.040;2023-05-10T05:23:42;6.37;;;4.00;;
71366;SDS011;60030;52.274;8.040;2023-05-10T05:26:10;4.90;;;4.30;;
71366;SDS011;60030;52.274;8.040;2023-05-10T05:28:37;6.27;;;5.00;;
71366;SDS011;60030;52.274;8.040;2023-05-10T05:31:05;7.47;;;5.03;;
71366;SDS011;60030;52.274;8.040;2023-05-10T05:33:34;6.33;;;4.40;;
71366;SDS011;60030;52.274;8.040;2023-05-10T05:36:04;6.07;;;5.03;;
71366;SDS011;60030;52.274;8.040;2023-05-10T05:38:33;6.63;;;4.90;;
71366;SDS011;60030;52.274;8.040;2023-05-10T05:41:01;7.17;;;5.33;;
71366;SDS011;60030;52.274;8.040;2023-05-10T05:43:29;7.43;;;4.80;;
71366;SDS011;60030;52.274;8.040;2023-05-10T05:45:57;4.77;;;4.07;;
71366;SDS011;60030;52.274;8.040;2023-05-10T05:48:25;5.80;;;4.30;;
71366;SDS011;60030;52.274;8.040;2023-05-10T05:50:54;5.57;;;4.47;;
71366;SDS011;60030;52.274;8.040;2023-05-10T05:53:22;4.57;;;3.83;;
71366;SDS011;60030;52.274;8.040;2023-05-10T05:55:54;5.63;;;4.30;;
71366;SDS011;60030;52.274;8.040;2023-05-10T05:58:22;5.17;;;4.00;;
71366;SDS011;60030;52.274;8.040;2023-05-10T06:00:50;5.30;;;3.80;;
71366;SDS011;60030;52.274;8.040;2023-05-10T06:03:18;4.97;;;4.20;;
71366;SDS011;60030;52.274;8.040;2023-05-10T06:05:45;6.40;;;4.50;;
71366;SDS011;60030;52.274;8.040;2023-05-10T06:08:13;3.97;;;3.37;;
71366;SDS011;60030;52.274;8.040;2023-05-10T06:10:40;4.40;;;3.50;;
71366;SDS011;60030;52.274;8.040;2023-05-10T06:13:09;5.40;;;3.50;;
71366;SDS011;60030;52.274;8.040;2023-05-10T06:18:43;4.17;;;3.20;;
71366;SDS011;60030;52.274;8.040;2023-05-10T06:21:10;4.47;;;3.67;;
71366;SDS011;60030;52.274;8.040;2023-05-10T06:23:37;7.17;;;4.43;;
71366;SDS011;60030;52.274;8.040;2023-05-10T06:26:05;5.30;;;3.77;;
71366;SDS011;60030;52.274;8.040;2023-05-10T06:28:34;4.57;;;3.40;;
71366;SDS011;60030;52.274;8.040;2023-05-10T06:31:03;5.43;;;4.07;;
71366;SDS011;60030;52.274;8.040;2023-05-10T06:33:31;5.03;;;3.80;;
71366;SDS011;60030;52.274;8.040;2023-05-10T06:35:58;5.23;;;4.07;;
71366;SDS011;60030;52.274;8.040;2023-05-10T06:38:25;6.00;;;4.63;;
71366;SDS011;60030;52.274;8.040;2023-05-10T06:40:53;6.70;;;4.23;;
71366;SDS011;60030;52.274;8.040;2023-05-10T06:43:21;5.60;;;3.93;;
71366;SDS011;60030;52.274;8.040;2023-05-10T06:45:51;6.80;;;3.97;;
71366;SDS011;60030;52.274;8.040;2023-05-10T06:48:18;7.93;;;4.30;;
71366;SDS011;60030;52.274;8.040;2023-05-10T06:50:47;6.33;;;5.00;;
71366;SDS011;60030;52.274;8.040;2023-05-10T06:53:14;6.43;;;4.73;;
71366;SDS011;60030;52.274;8.040;2023-05-10T06:55:42;8.70;;;5.97;;
71366;SDS011;60030;52.274;8.040;2023-05-10T06:58:14;7.50;;;5.37;;
71366;SDS011;60030;52.274;8.040;2023-05-10T07:00:43;7.33;;;5.50;;
71366;SDS011;60030;52.274;8.040;2023-05-10T07:03:12;7.37;;;5.17;;
71366;SDS011;60030;52.274;8.040;2023-05-10T07:05:40;8.57;;;5.70;;
71366;SDS011;60030;52.274;8.040;2023-05-10T07:08:11;11.43;;;6.07;;
71366;SDS011;60030;52.274;8.040;2023-05-10T07:10:39;8.70;;;6.13;;
71366;SDS011;60030;52.274;8.040;2023-05-10T07:13:07;9.40;;;6.43;;
71366;SDS011;60030;52.274;8.040;2023-05-10T07:15:35;11.80;;;7.23;;
71366;SDS011;60030;52.274;8.040;2023-05-10T07:18:02;13.47;;;7.17;;
71366;SDS011;60030;52.274;8.040;2023-05-10T07:20:33;11.33;;;7.97;;
71366;SDS011;60030;52.274;8.040;2023-05-10T07:23:00;11.20;;;8.30;;
71366;SDS011;60030;52.274;8.040;2023-05-10T07:25:28;13.73;;;8.23;;
71366;SDS011;60030;52.274;8.040;2023-05-10T07:27:55;15.00;;;9.30;;
71366;SDS011;60030;52.274;8.040;2023-05-10T07:30:23;15.07;;;8.33;;
71366;SDS011;60030;52.274;8.040;2023-05-10T07:32:50;13.53;;;9.53;;
71366;SDS011;60030;52.274;8.040;2023-05-10T07:35:18;14.67;;;9.60;;
71366;SDS011;60030;52.274;8.040;2023-05-10T07:37:47;15.33;;;9.43;;
71366;SDS011;60030;52.274;8.040;2023-05-10T07:40:15;18.40;;;9.70;;
71366;SDS011;60030;52.274;8.040;2023-05-10T07:42:42;15.93;;;9.47;;
71366;SDS011;60030;52.274;8.040;2023-05-10T07:45:10;17.40;;;10.13;;
71366;SDS011;60030;52.274;8.040;2023-05-10T07:47:37;16.63;;;9.97;;
71366;SDS011;60030;52.274;8.040;2023-05-10T07:50:06;14.90;;;9.47;;
71366;SDS011;60030;52.274;8.040;2023-05-10T07:52:34;14.50;;;9.47;;
71366;SDS011;60030;52.274;8.040;2023-05-10T07:55:06;16.07;;;9.37;;
71366;SDS011;60030;52.274;8.040;2023-05-10T07:57:38;15.17;;;9.73;;
71366;SDS011;60030;52.274;8.040;2023-05-10T08:00:11;13.70;;;8.70;;
71366;SDS011;60030;52.274;8.040;2023-05-10T08:02:40;16.63;;;10.07;;
71366;SDS011;60030;52.274;8.040;2023-05-10T08:05:08;16.57;;;10.67;;
71366;SDS011;60030;52.274;8.040;2023-05-10T08:07:37;16.97;;;10.20;;
71366;SDS011;60030;52.274;8.040;2023-05-10T08:10:07;20.07;;;11.57;;
71366;SDS011;60030;52.274;8.040;2023-05-10T08:12:37;20.13;;;10.17;;
71366;SDS011;60030;52.274;8.040;2023-05-10T08:15:05;16.60;;;10.03;;
71366;SDS011;60030;52.274;8.040;2023-05-10T08:17:33;19.43;;;11.30;;
71366;SDS011;60030;52.274;8.040;2023-05-10T08:20:01;19.30;;;11.20;;
71366;SDS011;60030;52.274;8.040;2023-05-10T08:22:29;20.63;;;11.67;;
71366;SDS011;60030;52.274;8.040;2023-05-10T08:24:58;20.80;;;12.23;;
71366;SDS011;60030;52.274;8.040;2023-05-10T08:27:26;18.47;;;11.73;;
71366;SDS011;60030;52.274;8.040;2023-05-10T08:29:54;20.60;;;12.43;;
71366;SDS011;60030;52.274;8.040;2023-05-10T08:32:21;20.93;;;11.47;;
71366;SDS011;60030;52.274;8.040;2023-05-10T08:34:49;18.97;;;11.87;;
71366;SDS011;60030;52.274;8.040;2023-05-10T08:37:16;19.47;;;11.40;;
71366;SDS011;60030;52.274;8.040;2023-05-10T08:39:44;18.43;;;11.83;;
71366;SDS011;60030;52.274;8.040;2023-05-10T08:42:13;20.87;;;11.70;;
71366;SDS011;60030;52.274;8.040;2023-05-10T08:44:48;19.43;;;11.47;;
71366;SDS011;60030;52.274;8.040;2023-05-10T08:47:16;18.80;;;10.53;;
71366;SDS011;60030;52.274;8.040;2023-05-10T08:49:45;17.03;;;10.63;;
71366;SDS011;60030;52.274;8.040;2023-05-10T08:52:16;18.97;;;10.87;;
71366;SDS011;60030;52.274;8.040;2023-05-10T08:54:45;19.03;;;11.33;;
71366;SDS011;60030;52.274;8.040;2023-05-10T08:57:13;19.17;;;10.27;;
71366;SDS011;60030;52.274;8.040;2023-05-10T08:59:40;19.07;;;11.27;;
71366;SDS011;60030;52.274;8.040;2023-05-10T09:02:09;20.03;;;11.47;;
71366;SDS011;60030;52.274;8.040;2023-05-10T09:04:38;23.17;;;12.57;;
71366;SDS011;60030;52.274;8.040;2023-05-10T09:07:05;19.27;;;11.90;;
71366;SDS011;60030;52.274;8.040;2023-05-10T09:09:33;22.53;;;11.93;;
71366;SDS011;60030;52.274;8.040;2023-05-10T09:12:01;19.77;;;11.97;;
71366;SDS011;60030;52.274;8.040;2023-05-10T09:14:29;22.87;;;12.67;;
71366;SDS011;60030;52.274;8.040;2023-05-10T09:16:57;21.07;;;13.23;;
71366;SDS011;60030;52.274;8.040;2023-05-10T09:19:28;21.93;;;12.97;;
71366;SDS011;60030;52.274;8.040;2023-05-10T09:21:56;21.37;;;11.80;;
71366;SDS011;60030;52.274;8.040;2023-05-10T09:24:26;20.87;;;12.03;;
71366;SDS011;60030;52.274;8.040;2023-05-10T09:26:56;19.53;;;12.10;;
71366;SDS011;60030;52.274;8.040;2023-05-10T09:29:24;19.23;;;12.33;;
71366;SDS011;60030;52.274;8.040;2023-05-10T09:31:52;20.33;;;11.33;;
71366;SDS011;60030;52.274;8.040;2023-05-10T09:34:22;21.10;;;12.13;;
71366;SDS011;60030;52.274;8.040;2023-05-10T09:37:00;20.27;;;11.87;;
71366;SDS011;60030;52.274;8.040;2023-05-10T09:39:30;21.63;;;11.37;;
71366;SDS011;60030;52.274;8.040;2023-05-10T09:41:58;18.30;;;11.00;;
71366;SDS011;60030;52.274;8.040;2023-05-10T09:44:29;21.43;;;11.50;;
71366;SDS011;60030;52.274;8.040;2023-05-10T09:46:58;19.10;;;10.13;;
71366;SDS011;60030;52.274;8.040;2023-05-10T09:49:25;20.33;;;11.90;;
71366;SDS011;60030;52.274;8.040;2023-05-10T09:52:03;20.07;;;11.57;;
71366;SDS011;60030;52.274;8.040;2023-05-10T09:54:31;20.03;;;11.53;;
71366;SDS011;60030;52.274;8.040;2023-05-10T09:56:59;18.40;;;11.10;;
71366;SDS011;60030;52.274;8.040;2023-05-10T09:59:28;18.63;;;10.67;;
71366;SDS011;60030;52.274;8.040;2023-05-10T10:01:55;17.57;;;11.67;;
71366;SDS011;60030;52.274;8.040;2023-05-10T10:04:24;18.70;;;11.50;;
71366;SDS011;60030;52.274;8.040;2023-05-10T10:07:00;24.57;;;12.23;;
71366;SDS011;60030;52.274;8.040;2023-05-10T10:09:31;23.17;;;12.97;;
71366;SDS011;60030;52.274;8.040;2023-05-10T10:11:59;17.80;;;11.30;;
71366;SDS011;60030;52.274;8.040;2023-05-10T10:14:29;18.52;;;11.82;;
71366;SDS011;60030;52.274;8.040;2023-05-10T10:16:56;21.75;;;12.10;;
71366;SDS011;60030;52.274;8.040;2023-05-10T10:19:26;20.27;;;11.03;;
71366;SDS011;60030;52.274;8.040;2023-05-10T10:21:54;16.23;;;11.10;;
71366;SDS011;60030;52.274;8.040;2023-05-10T10:24:23;19.00;;;11.83;;
71366;SDS011;60030;52.274;8.040;2023-05-10T10:26:51;20.77;;;11.80;;
71366;SDS011;60030;52.274;8.040;2023-05-10T10:29:25;14.67;;;9.77;;
71366;SDS011;60030;52.274;8.040;2023-05-10T10:32:03;16.73;;;10.60;;
71366;SDS011;60030;52.274;8.040;2023-05-10T10:34:35;16.80;;;10.80;;
71366;SDS011;60030;52.274;8.040;2023-05-10T10:37:05;16.33;;;10.30;;
71366;SDS011;60030;52.274;8.040;2023-05-10T10:39:33;17.35;;;10.48;;
71366;SDS011;60030;52.274;8.040;2023-05-10T10:42:04;17.00;;;10.07;;
71366;SDS011;60030;52.274;8.040;2023-05-10T10:44:36;19.48;;;9.38;;
71366;SDS011;60030;52.274;8.040;2023-05-10T10:47:05;14.13;;;8.75;;
71366;SDS011;60030;52.274;8.040;2023-05-10T10:49:43;13.68;;;8.77;;
71366;SDS011;60030;52.274;8.040;2023-05-10T10:52:23;13.93;;;8.57;;
71366;SDS011;60030;52.274;8.040;2023-05-10T10:54:57;10.18;;;7.05;;
71366;SDS011;60030;52.274;8.040;2023-05-10T10:57:28;12.63;;;7.37;;
71366;SDS011;60030;52.274;8.040;2023-05-10T11:02:48;12.20;;;7.80;;
71366;SDS011;60030;52.274;8.040;2023-05-10T11:05:24;11.95;;;7.95;;
71366;SDS011;60030;52.274;8.040;2023-05-10T11:08:08;15.02;;;7.97;;
71366;SDS011;60030;52.274;8.040;2023-05-10T11:10:40;11.48;;;7.78;;
71366;SDS011;60030;52.274;8.040;2023-05-10T11:13:26;15.80;;;8.57;;
71366;SDS011;60030;52.274;8.040;2023-05-10T11:15:55;18.20;;;9.15;;
71366;SDS011;60030;52.274;8.040;2023-05-10T11:18:25;14.48;;;9.48;;
71366;SDS011;60030;52.274;8.040;2023-05-10T11:20:56;16.73;;;9.18;;
71366;SDS011;60030;52.274;8.040;2023-05-10T11:23:29;12.45;;;8.60;;
71366;SDS011;60030;52.274;8.040;2023-05-10T11:25:58;16.30;;;9.02;;
71366;SDS011;60030;52.274;8.040;2023-05-10T11:28:28;15.90;;;9.68;;
71366;SDS011;60030;52.274;8.040;2023-05-10T11:30:55;15.18;;;8.60;;
71366;SDS011;60030;52.274;8.040;2023-05-10T11:33:23;16.85;;;8.68;;
71366;SDS011;60030;52.274;8.040;2023-05-10T11:35:51;13.82;;;8.63;;
71366;SDS011;60030;52.274;8.040;2023-05-10T11:38:18;11.80;;;7.63;;
71366;SDS011;60030;52.274;8.040;2023-05-10T11:40:45;11.02;;;6.90;;
71366;SDS011;60030;52.274;8.040;2023-05-10T11:43:13;10.07;;;6.45;;
71366;SDS011;60030;52.274;8.040;2023-05-10T11:45:42;10.38;;;6.35;;
71366;SDS011;60030;52.274;8.040;2023-05-10T11:48:11;9.98;;;6.35;;
71366;SDS011;60030;52.274;8.040;2023-05-10T11:50:39;9.30;;;7.05;;
71366;SDS011;60030;52.274;8.040;2023-05-10T11:53:07;12.15;;;7.65;;
71366;SDS011;60030;52.274;8.040;2023-05-10T11:55:35;11.48;;;6.95;;
71366;SDS011;60030;52.274;8.040;2023-05-10T11:58:03;13.85;;;7.88;;
71366;SDS011;60030;52.274;8.040;2023-05-10T12:00:30;12.70;;;7.60;;
71366;SDS011;60030;52.274;8.040;2023-05-10T12:03:01;15.05;;;8.32;;
71366;SDS011;60030;52.274;8.040;2023-05-10T12:05:31;15.18;;;8.85;;
71366;SDS011;60030;52.274;8.040;2023-05-10T12:08:12;12.48;;;8.52;;
71366;SDS011;60030;52.274;8.040;2023-05-10T12:10:41;15.20;;;8.05;;
71366;SDS011;60030;52.274;8.040;2023-05-10T12:13:12;13.45;;;8.50;;
71366;SDS011;60030;52.274;8.040;2023-05-10T12:15:41;14.23;;;8.38;;
71366;SDS011;60030;52.274;8.040;2023-05-10T12:18:10;12.95;;;7.75;;
71366;SDS011;60030;52.274;8.040;2023-05-10T12:20:38;11.98;;;7.05;;
71366;SDS011;60030;52.274;8.040;2023-05-10T12:23:07;9.75;;;6.97;;
71366;SDS011;60030;52.274;8.040;2023-05-10T12:25:36;12.75;;;7.65;;
71366;SDS011;60030;52.274;8.040;2023-05-10T12:28:07;12.73;;;7.68;;
71366;SDS011;60030;52.274;8.040;2023-05-10T12:30:37;12.85;;;7.60;;
71366;SDS011;60030;52.274;8.040;2023-05-10T12:33:12;13.25;;;7.60;;
71366;SDS011;60030;52.274;8.040;2023-05-10T12:35:45;13.32;;;7.63;;
71366;SDS011;60030;52.274;8.040;2023-05-10T12:38:24;13.48;;;7.45;;
71366;SDS011;60030;52.274;8.040;2023-05-10T12:40:54;10.25;;;6.80;;
71366;SDS011;60030;52.274;8.040;2023-05-10T12:43:22;13.90;;;7.45;;
71366;SDS011;60030;52.274;8.040;2023-05-10T12:45:49;14.60;;;8.10;;
71366;SDS011;60030;52.274;8.040;2023-05-10T12:48:18;11.25;;;7.93;;
71366;SDS011;60030;52.274;8.040;2023-05-10T12:50:46;12.85;;;7.15;;
71366;SDS011;60030;52.274;8.040;2023-05-10T12:53:13;11.05;;;7.60;;
71366;SDS011;60030;52.274;8.040;2023-05-10T12:55:44;11.50;;;7.03;;
71366;SDS011;60030;52.274;8.040;2023-05-10T12:58:11;11.52;;;7.28;;
71366;SDS011;60030;52.274;8.040;2023-05-10T13:00:38;11.65;;;7.20;;
71366;SDS011;60030;52.274;8.040;2023-05-10T13:03:06;11.10;;;6.63;;
71366;SDS011;60030;52.274;8.040;2023-05-10T13:05:35;11.52;;;6.60;;
71366;SDS011;60030;52.274;8.040;2023-05-10T13:08:02;11.30;;;7.25;;
71366;SDS011;60030;52.274;8.040;2023-05-10T13:10:30;10.05;;;6.78;;
71366;SDS011;60030;52.274;8.040;2023-05-10T13:12:58;10.23;;;6.20;;
71366;SDS011;60030;52.274;8.040;2023-05-10T13:15:26;10.90;;;6.57;;
71366;SDS011;60030;52.274;8.040;2023-05-10T13:17:57;10.50;;;6.80;;
71366;SDS011;60030;52.274;8.040;2023-05-10T13:20:25;9.63;;;7.18;;
71366;SDS011;60030;52.274;8.040;2023-05-10T13:22:55;12.38;;;6.95;;
71366;SDS011;60030;52.274;8.040;2023-05-10T13:25:26;10.52;;;7.45;;
71366;SDS011;60030;52.274;8.040;2023-05-10T13:28:04;14.18;;;8.40;;
71366;SDS011;60030;52.274;8.040;2023-05-10T13:30:37;13.57;;;8.00;;
71366;SDS011;60030;52.274;8.040;2023-05-10T13:33:05;16.05;;;8.65;;
71366;SDS011;60030;52.274;8.040;2023-05-10T13:35:32;14.07;;;8.13;;
71366;SDS011;60030;52.274;8.040;2023-05-10T13:38:01;11.38;;;7.75;;
71366;SDS011;60030;52.274;8.040;2023-05-10T13:40:28;12.75;;;7.22;;
71366;SDS011;60030;52.274;8.040;2023-05-10T13:42:56;13.60;;;7.38;;
71366;SDS011;60030;52.274;8.040;2023-05-10T13:45:23;12.23;;;6.78;;
71366;SDS011;60030;52.274;8.040;2023-05-10T13:47:52;12.27;;;7.00;;
71366;SDS011;60030;52.274;8.040;2023-05-10T13:50:19;10.88;;;7.05;;
71366;SDS011;60030;52.274;8.040;2023-05-10T13:52:47;12.95;;;6.10;;
71366;SDS011;60030;52.274;8.040;2023-05-10T13:55:16;11.38;;;6.82;;
71366;SDS011;60030;52.274;8.040;2023-05-10T13:57:43;11.77;;;7.40;;
71366;SDS011;60030;52.274;8.040;2023-05-10T14:00:11;12.73;;;7.32;;
71366;SDS011;60030;52.274;8.040;2023-05-10T14:02:39;14.57;;;8.32;;
71366;SDS011;60030;52.274;8.040;2023-05-10T14:05:07;10.73;;;6.88;;
71366;SDS011;60030;52.274;8.040;2023-05-10T14:07:36;13.27;;;7.63;;
71366;SDS011;60030;52.274;8.040;2023-05-10T14:10:04;10.95;;;7.68;;
71366;SDS011;60030;52.274;8.040;2023-05-10T14:12:33;14.95;;;8.50;;
71366;SDS011;60030;52.274;8.040;2023-05-10T14:15:01;11.45;;;7.28;;
71366;SDS011;60030;52.274;8.040;2023-05-10T14:17:31;13.25;;;8.32;;
71366;SDS011;60030;52.274;8.040;2023-05-10T14:19:58;11.20;;;8.02;;
71366;SDS011;60030;52.274;8.040;2023-05-10T14:22:26;11.25;;;7.18;;
71366;SDS011;60030;52.274;8.040;2023-05-10T14:24:53;13.45;;;8.90;;
71366;SDS011;60030;52.274;8.040;2023-05-10T14:27:21;12.73;;;7.55;;
71366;SDS011;60030;52.274;8.040;2023-05-10T14:29:49;9.93;;;6.97;;
71366;SDS011;60030;52.274;8.040;2023-05-10T14:32:17;11.13;;;7.15;;
71366;SDS011;60030;52.274;8.040;2023-05-10T14:34:44;9.60;;;6.45;;
71366;SDS011;60030;52.274;8.040;2023-05-10T14:37:12;9.93;;;7.00;;
71366;SDS011;60030;52.274;8.040;2023-05-10T14:39:40;9.73;;;7.18;;
71366;SDS011;60030;52.274;8.040;2023-05-10T14:42:08;12.25;;;7.32;;
71366;SDS011;60030;52.274;8.040;2023-05-10T14:44:35;9.95;;;7.55;;
71366;SDS011;60030;52.274;8.040;2023-05-10T14:47:04;12.10;;;6.57;;
71366;SDS011;60030;52.274;8.040;2023-05-10T14:49:32;9.82;;;6.82;;
71366;SDS011;60030;52.274;8.040;2023-05-10T14:51:59;11.10;;;6.63;;
71366;SDS011;60030;52.274;8.040;2023-05-10T14:54:27;11.00;;;6.90;;
71366;SDS011;60030;52.274;8.040;2023-05-10T14:56:54;10.52;;;6.28;;